Airfield :







YOU CAN JOIN US ON...

 
LOGIN :

Register | Disclaimer

   EN    FR    IT 

 









Legend :    VFR   Marginal VFR   IFR   Intensive IFR   Very Intensive IFR
Visi :
Ceiling :
>= 8 km
>= 3000ft
5 to 8 km
1000 to 3000 ft
1500m to 5 km
500 to 1000 ft
800 to 1500m
200 to 500 ft
< 800m
< 200 ft
Symbols :   Thunderstorms  Fog  Heavy snow  Heavy precipitations  Wind > 20 kt






- Airport Elevation : 40 ft
- IATA code : YRF


CYCA - Cartwright

CURRENT METAR :
  • 280900Z AUTO 20005KT 9SM BKN240 M25/M28 A3010 RMK SLP196

EXPIRED METARs :
  • 280800Z AUTO 21004KT 9SM FEW001 BKN240 M25/M27 A3013 RMK SLP205
  • 280700Z AUTO 19005KT 9SM BKN240 M26/M29 A3014 RMK SLP211

TAF TAF CYCA
Valid from the 28 at 08:00 until the 28 at 20:00 UTC


280738Z 2808/2820 VRB03KT P6SM FEW015 BKN240
TEMPO 2808/2820 BKN015 OVC100 RMK FCST BASED ON AUTO OBS. NXT FCST BY 281400Z



MET'MAP, your aeronautical weather chart ! - Copyright ORBIFLY December 2007 - Disclaimer

ORBIFLY MET'MAP TEAM :

Programming & Development : Alexandra Zaïnal
Concept & original design : Baudouin d'Aumeries
Assistance for programming : Marc-Olivier Méhu
Technical & hardware support : Manuel Goepfert

Contact : metmap@orbifly.com




SOURCES & CREDITS :

   NOAA